sensor_id;sensor_type;location;lat;lon;timestamp;pressure;altitude;pressure_sealevel;temperature;humidity
76586;BME280;65251;51.022;13.736;2023-07-08T00:00:29;99804.19;;;18.78;53.88
76586;BME280;65251;51.022;13.736;2023-07-08T00:01:00;99811.72;;;18.76;52.62
76586;BME280;65251;51.022;13.736;2023-07-08T00:01:31;99802.56;;;18.77;52.85
76586;BME280;65251;51.022;13.736;2023-07-08T00:02:08;99798.44;;;18.75;53.84
76586;BME280;65251;51.022;13.736;2023-07-08T00:02:40;99807.38;;;18.75;53.40
76586;BME280;65251;51.022;13.736;2023-07-08T00:03:12;99808.19;;;18.76;53.00
76586;BME280;65251;51.022;13.736;2023-07-08T00:03:42;99805.50;;;18.76;52.39
76586;BME280;65251;51.022;13.736;2023-07-08T00:04:13;99804.69;;;18.75;53.15
76586;BME280;65251;51.022;13.736;2023-07-08T00:04:45;99807.63;;;18.74;52.32
76586;BME280;65251;51.022;13.736;2023-07-08T00:05:18;99804.09;;;18.73;51.53
76586;BME280;65251;51.022;13.736;2023-07-08T00:05:54;99800.00;;;18.71;51.55
76586;BME280;65251;51.022;13.736;2023-07-08T00:06:28;99797.88;;;18.73;50.82
76586;BME280;65251;51.022;13.736;2023-07-08T00:06:58;99799.53;;;18.74;51.14
76586;BME280;65251;51.022;13.736;2023-07-08T00:07:29;99802.22;;;18.74;50.97
76586;BME280;65251;51.022;13.736;2023-07-08T00:08:01;99797.88;;;18.73;51.26
76586;BME280;65251;51.022;13.736;2023-07-08T00:08:33;99801.41;;;18.73;50.62
76586;BME280;65251;51.022;13.736;2023-07-08T00:09:10;99799.53;;;18.74;50.47
76586;BME280;65251;51.022;13.736;2023-07-08T00:09:41;99805.16;;;18.72;50.92
76586;BME280;65251;51.022;13.736;2023-07-08T00:10:16;99805.16;;;18.72;50.99
76586;BME280;65251;51.022;13.736;2023-07-08T00:10:48;99798.13;;;18.71;50.66
76586;BME280;65251;51.022;13.736;2023-07-08T00:11:18;99802.47;;;18.72;50.97
76586;BME280;65251;51.022;13.736;2023-07-08T00:11:49;99805.16;;;18.72;50.91
76586;BME280;65251;51.022;13.736;2023-07-08T00:12:20;99799.75;;;18.72;50.47
76586;BME280;65251;51.022;13.736;2023-07-08T00:12:54;99800.81;;;18.71;50.13
76586;BME280;65251;51.022;13.736;2023-07-08T00:13:25;99803.75;;;18.70;50.18
76586;BME280;65251;51.022;13.736;2023-07-08T00:13:55;99805.63;;;18.69;50.14
76586;BME280;65251;51.022;13.736;2023-07-08T00:14:27;99802.69;;;18.71;50.29
76586;BME280;65251;51.022;13.736;2023-07-08T00:14:58;99813.50;;;18.71;50.31
76586;BME280;65251;51.022;13.736;2023-07-08T00:15:31;99809.41;;;18.68;50.84
76586;BME280;65251;51.022;13.736;2023-07-08T00:16:03;99810.22;;;18.69;50.72
76586;BME280;65251;51.022;13.736;2023-07-08T00:16:35;99810.22;;;18.69;50.69
76586;BME280;65251;51.022;13.736;2023-07-08T00:17:10;99808.81;;;18.66;51.71
76586;BME280;65251;51.022;13.736;2023-07-08T00:17:42;99807.19;;;18.65;50.68
76586;BME280;65251;51.022;13.736;2023-07-08T00:18:17;99808.25;;;18.64;51.09
76586;BME280;65251;51.022;13.736;2023-07-08T00:18:49;99811.19;;;18.63;52.07
76586;BME280;65251;51.022;13.736;2023-07-08T00:19:20;99809.56;;;18.62;50.98
76586;BME280;65251;51.022;13.736;2023-07-08T00:19:54;99807.91;;;18.61;50.82
76586;BME280;65251;51.022;13.736;2023-07-08T00:20:32;99817.31;;;18.58;51.37
76586;BME280;65251;51.022;13.736;2023-07-08T00:21:09;99814.03;;;18.56;51.84
76586;BME280;65251;51.022;13.736;2023-07-08T00:21:39;99814.28;;;18.54;51.03
76586;BME280;65251;51.022;13.736;2023-07-08T00:22:12;99817.22;;;18.53;51.60
76586;BME280;65251;51.022;13.736;2023-07-08T00:22:43;99815.25;;;18.48;51.88
76586;BME280;65251;51.022;13.736;2023-07-08T00:23:18;99819.56;;;18.49;51.31
76586;BME280;65251;51.022;13.736;2023-07-08T00:23:52;99813.59;;;18.47;51.43
76586;BME280;65251;51.022;13.736;2023-07-08T00:24:22;99815.72;;;18.45;51.42
76586;BME280;65251;51.022;13.736;2023-07-08T00:24:54;99821.59;;;18.42;51.78
76586;BME280;65251;51.022;13.736;2023-07-08T00:25:25;99813.97;;;18.39;51.51
76586;BME280;65251;51.022;13.736;2023-07-08T00:25:55;99821.00;;;18.40;50.86
76586;BME280;65251;51.022;13.736;2023-07-08T00:26:29;99819.38;;;18.39;50.44
76586;BME280;65251;51.022;13.736;2023-07-08T00:27:01;99817.78;;;18.38;51.08
76586;BME280;65251;51.022;13.736;2023-07-08T00:27:32;99816.69;;;18.39;51.23
76586;BME280;65251;51.022;13.736;2023-07-08T00:28:05;99817.78;;;18.38;50.29
76586;BME280;65251;51.022;13.736;2023-07-08T00:28:39;99817.78;;;18.38;50.60
76586;BME280;65251;51.022;13.736;2023-07-08T00:29:10;99814.81;;;18.40;50.07
76586;BME280;65251;51.022;13.736;2023-07-08T00:29:42;99828.28;;;18.40;50.36
76586;BME280;65251;51.022;13.736;2023-07-08T00:30:20;99818.06;;;18.42;50.76
76586;BME280;65251;51.022;13.736;2023-07-08T00:30:51;99817.03;;;18.43;50.86
76586;BME280;65251;51.022;13.736;2023-07-08T00:31:23;99819.47;;;18.44;51.06
76586;BME280;65251;51.022;13.736;2023-07-08T00:31:55;99815.97;;;18.44;50.08
76586;BME280;65251;51.022;13.736;2023-07-08T00:32:27;99824.63;;;18.46;50.08
76586;BME280;65251;51.022;13.736;2023-07-08T00:32:58;99820.28;;;18.45;50.10
76586;BME280;65251;51.022;13.736;2023-07-08T00:33:29;99826.75;;;18.44;51.01
76586;BME280;65251;51.022;13.736;2023-07-08T00:34:00;99828.63;;;18.43;50.59
76586;BME280;65251;51.022;13.736;2023-07-08T00:34:33;99828.63;;;18.43;50.36
76586;BME280;65251;51.022;13.736;2023-07-08T00:35:05;99820.28;;;18.45;50.07
76586;BME280;65251;51.022;13.736;2023-07-08T00:35:38;99825.69;;;18.45;49.58
76586;BME280;65251;51.022;13.736;2023-07-08T00:36:11;99831.91;;;18.45;50.12
76586;BME280;65251;51.022;13.736;2023-07-08T00:36:45;99825.94;;;18.43;49.60
76586;BME280;65251;51.022;13.736;2023-07-08T00:37:16;99824.28;;;18.42;49.99
76586;BME280;65251;51.022;13.736;2023-07-08T00:37:46;99828.06;;;18.41;50.05
76586;BME280;65251;51.022;13.736;2023-07-08T00:38:22;99823.94;;;18.39;49.62
76586;BME280;65251;51.022;13.736;2023-07-08T00:38:57;99819.97;;;18.41;49.48
76586;BME280;65251;51.022;13.736;2023-07-08T00:39:27;99815.06;;;18.38;50.44
76586;BME280;65251;51.022;13.736;2023-07-08T00:39:58;99820.19;;;18.40;49.46
76586;BME280;65251;51.022;13.736;2023-07-08T00:40:31;99815.31;;;18.37;49.84
76586;BME280;65251;51.022;13.736;2023-07-08T00:41:09;99819.66;;;18.38;49.69
76586;BME280;65251;51.022;13.736;2023-07-08T00:41:43;99820.47;;;18.38;49.66
76586;BME280;65251;51.022;13.736;2023-07-08T00:42:17;99819.06;;;18.36;49.58
76586;BME280;65251;51.022;13.736;2023-07-08T00:42:49;99818.00;;;18.37;50.50
76586;BME280;65251;51.022;13.736;2023-07-08T00:43:24;99808.75;;;18.33;49.76
76586;BME280;65251;51.022;13.736;2023-07-08T00:43:58;99820.94;;;18.35;50.48
76586;BME280;65251;51.022;13.736;2023-07-08T00:44:32;99814.97;;;18.33;49.54
76586;BME280;65251;51.022;13.736;2023-07-08T00:45:18;99813.81;;;18.29;50.15
76586;BME280;65251;51.022;13.736;2023-07-08T00:46:01;99822.72;;;18.30;50.33
76586;BME280;65251;51.022;13.736;2023-07-08T00:46:42;99821.91;;;18.29;50.38
76586;BME280;65251;51.022;13.736;2023-07-08T00:47:18;99815.94;;;18.27;50.42
76586;BME280;65251;51.022;13.736;2023-07-08T00:47:51;99818.63;;;18.27;50.62
76586;BME280;65251;51.022;13.736;2023-07-08T00:48:25;99813.72;;;18.24;51.64
76586;BME280;65251;51.022;13.736;2023-07-08T00:49:08;99819.09;;;18.24;51.52
76586;BME280;65251;51.022;13.736;2023-07-08T00:49:45;99819.34;;;18.22;51.31
76586;BME280;65251;51.022;13.736;2023-07-08T00:50:16;99824.97;;;18.21;50.91
76586;BME280;65251;51.022;13.736;2023-07-08T00:50:47;99828.72;;;18.20;51.42
76586;BME280;65251;51.022;13.736;2023-07-08T00:51:20;99825.22;;;18.19;51.05
76586;BME280;65251;51.022;13.736;2023-07-08T00:51:52;99819.50;;;18.16;52.02
76586;BME280;65251;51.022;13.736;2023-07-08T00:52:25;99821.84;;;18.12;51.71
76586;BME280;65251;51.022;13.736;2023-07-08T00:53:25;99820.22;;;18.11;51.33
76586;BME280;65251;51.022;13.736;2023-07-08T00:53:57;99818.00;;;18.08;51.23
76586;BME280;65251;51.022;13.736;2023-07-08T00:54:28;99817.19;;;18.08;51.19
76586;BME280;65251;51.022;13.736;2023-07-08T00:55:05;99815.66;;;18.00;51.88
76586;BME280;65251;51.022;13.736;2023-07-08T00:55:38;99822.22;;;18.04;52.06
76586;BME280;65251;51.022;13.736;2023-07-08T00:56:13;99820.34;;;18.05;51.96
76586;BME280;65251;51.022;13.736;2023-07-08T00:56:49;99818.38;;;18.00;52.37
76586;BME280;65251;51.022;13.736;2023-07-08T00:57:26;99818.59;;;17.99;52.43
76586;BME280;65251;51.022;13.736;2023-07-08T00:57:59;99813.47;;;17.97;52.64
76586;BME280;65251;51.022;13.736;2023-07-08T00:58:35;99820.75;;;17.97;51.80
76586;BME280;65251;51.022;13.736;2023-07-08T00:59:13;99815.59;;;17.95;52.01
76586;BME280;65251;51.022;13.736;2023-07-08T00:59:52;99821.81;;;17.96;51.50
76586;BME280;65251;51.022;13.736;2023-07-08T01:00:25;99815.59;;;17.95;52.42
76586;BME280;65251;51.022;13.736;2023-07-08T01:00:56;99817.22;;;17.96;52.00
76586;BME280;65251;51.022;13.736;2023-07-08T01:01:31;99811.84;;;17.96;51.14
76586;BME280;65251;51.022;13.736;2023-07-08T01:02:07;99816.41;;;17.96;51.61
76586;BME280;65251;51.022;13.736;2023-07-08T01:02:45;99812.06;;;17.95;52.39
76586;BME280;65251;51.022;13.736;2023-07-08T01:03:20;99812.31;;;17.93;51.29
76586;BME280;65251;51.022;13.736;2023-07-08T01:03:56;99813.94;;;17.94;52.08
76586;BME280;65251;51.022;13.736;2023-07-08T01:04:37;99813.94;;;17.94;51.56
76586;BME280;65251;51.022;13.736;2023-07-08T01:05:17;99811.50;;;17.93;52.13
76586;BME280;65251;51.022;13.736;2023-07-08T01:05:51;99814.44;;;17.91;51.56
76586;BME280;65251;51.022;13.736;2023-07-08T01:06:25;99808.44;;;17.89;52.65
76586;BME280;65251;51.022;13.736;2023-07-08T01:07:02;99809.50;;;17.88;51.71
76586;BME280;65251;51.022;13.736;2023-07-08T01:07:34;99806.22;;;17.86;51.62
76586;BME280;65251;51.022;13.736;2023-07-08T01:08:06;99809.75;;;17.86;51.38
76586;BME280;65251;51.022;13.736;2023-07-08T01:08:39;99814.31;;;17.86;52.73
76586;BME280;65251;51.022;13.736;2023-07-08T01:09:14;99813.72;;;17.84;52.30
76586;BME280;65251;51.022;13.736;2023-07-08T01:09:46;99811.84;;;17.84;51.53
76586;BME280;65251;51.022;13.736;2023-07-08T01:10:23;99810.81;;;17.85;51.51
76586;BME280;65251;51.022;13.736;2023-07-08T01:11:01;99801.78;;;17.80;52.48
76586;BME280;65251;51.022;13.736;2023-07-08T01:11:36;99820.41;;;17.81;52.89
76586;BME280;65251;51.022;13.736;2023-07-08T01:12:14;99811.50;;;17.81;53.06
76586;BME280;65251;51.022;13.736;2023-07-08T01:12:51;99814.44;;;17.79;53.31
76586;BME280;65251;51.022;13.736;2023-07-08T01:13:24;99796.91;;;17.65;52.89
76586;BME280;65251;51.022;13.736;2023-07-08T01:13:56;99809.31;;;17.78;53.05
76586;BME280;65251;51.022;13.736;2023-07-08T01:14:32;99807.69;;;17.77;53.09
76586;BME280;65251;51.022;13.736;2023-07-08T01:15:07;99808.72;;;17.76;53.22
76586;BME280;65251;51.022;13.736;2023-07-08T01:15:41;99806.03;;;17.76;51.73
76586;BME280;65251;51.022;13.736;2023-07-08T01:16:14;99810.59;;;17.75;52.68
76586;BME280;65251;51.022;13.736;2023-07-08T01:16:46;99804.41;;;17.75;52.46
76586;BME280;65251;51.022;13.736;2023-07-08T01:17:17;99810.84;;;17.74;52.04
76586;BME280;65251;51.022;13.736;2023-07-08T01:17:48;99807.09;;;17.75;52.12
76586;BME280;65251;51.022;13.736;2023-07-08T01:18:24;99802.75;;;17.74;52.06
76586;BME280;65251;51.022;13.736;2023-07-08T01:18:56;99802.19;;;17.72;53.29
76586;BME280;65251;51.022;13.736;2023-07-08T01:19:28;99804.28;;;17.70;52.25
76586;BME280;65251;51.022;13.736;2023-07-08T01:20:05;99811.91;;;17.73;52.55
76586;BME280;65251;51.022;13.736;2023-07-08T01:20:36;99806.97;;;17.70;53.67
76586;BME280;65251;51.022;13.736;2023-07-08T01:21:29;99806.41;;;17.68;52.05
76586;BME280;65251;51.022;13.736;2023-07-08T01:22:04;99809.75;;;17.63;53.84
76586;BME280;65251;51.022;13.736;2023-07-08T01:22:36;99815.16;;;17.63;52.34
76586;BME280;65251;51.022;13.736;2023-07-08T01:23:07;99800.28;;;17.61;53.23
76586;BME280;65251;51.022;13.736;2023-07-08T01:23:39;99809.19;;;17.61;52.97
76586;BME280;65251;51.022;13.736;2023-07-08T01:24:11;99811.28;;;17.59;52.92
76586;BME280;65251;51.022;13.736;2023-07-08T01:24:45;99802.38;;;17.58;53.66
76586;BME280;65251;51.022;13.736;2023-07-08T01:25:16;99807.78;;;17.58;52.80
76586;BME280;65251;51.022;13.736;2023-07-08T01:25:47;99805.06;;;17.58;52.94
76586;BME280;65251;51.022;13.736;2023-07-08T01:26:23;99806.72;;;17.60;51.69
76586;BME280;65251;51.022;13.736;2023-07-08T01:26:55;99805.66;;;17.61;51.83
76586;BME280;65251;51.022;13.736;2023-07-08T01:27:27;99811.06;;;17.61;51.98
76586;BME280;65251;51.022;13.736;2023-07-08T01:27:58;99810.22;;;17.60;52.71
76586;BME280;65251;51.022;13.736;2023-07-08T01:28:31;99806.47;;;17.61;53.17
76586;BME280;65251;51.022;13.736;2023-07-08T01:29:03;99805.06;;;17.58;52.78
76586;BME280;65251;51.022;13.736;2023-07-08T01:29:34;99808.13;;;17.62;51.60
76586;BME280;65251;51.022;13.736;2023-07-08T01:30:07;99802.50;;;17.64;51.80
76586;BME280;65251;51.022;13.736;2023-07-08T01:30:41;99796.28;;;17.63;51.83
76586;BME280;65251;51.022;13.736;2023-07-08T01:31:12;99801.69;;;17.63;52.55
76586;BME280;65251;51.022;13.736;2023-07-08T01:31:43;99799.38;;;17.67;52.75
76586;BME280;65251;51.022;13.736;2023-07-08T01:32:19;99801.00;;;17.68;51.15
76586;BME280;65251;51.022;13.736;2023-07-08T01:32:55;99797.03;;;17.70;51.71
76586;BME280;65251;51.022;13.736;2023-07-08T01:33:27;99794.09;;;17.72;52.11
76586;BME280;65251;51.022;13.736;2023-07-08T01:33:58;99801.13;;;17.73;50.97
76586;BME280;65251;51.022;13.736;2023-07-08T01:34:32;99797.59;;;17.72;52.44
76586;BME280;65251;51.022;13.736;2023-07-08T01:35:05;99796.31;;;17.75;52.00
76586;BME280;65251;51.022;13.736;2023-07-08T01:35:36;99795.50;;;17.74;52.40
76586;BME280;65251;51.022;13.736;2023-07-08T01:36:08;99795.72;;;17.73;51.88
76586;BME280;65251;51.022;13.736;2023-07-08T01:36:44;99791.97;;;17.74;50.83
76586;BME280;65251;51.022;13.736;2023-07-08T01:37:18;99791.97;;;17.74;51.25
76586;BME280;65251;51.022;13.736;2023-07-08T01:37:53;99789.28;;;17.74;51.20
76586;BME280;65251;51.022;13.736;2023-07-08T01:38:27;99788.47;;;17.73;51.50
76586;BME280;65251;51.022;13.736;2023-07-08T01:38:58;99793.03;;;17.73;51.46
76586;BME280;65251;51.022;13.736;2023-07-08T01:39:31;99783.88;;;17.74;51.46
76586;BME280;65251;51.022;13.736;2023-07-08T01:40:19;99796.53;;;17.73;51.57
76586;BME280;65251;51.022;13.736;2023-07-08T01:40:55;99784.94;;;17.73;51.94
76586;BME280;65251;51.022;13.736;2023-07-08T01:41:27;99784.13;;;17.72;51.47
76586;BME280;65251;51.022;13.736;2023-07-08T01:41:58;99785.19;;;17.71;52.66
76586;BME280;65251;51.022;13.736;2023-07-08T01:42:29;99777.34;;;17.70;52.26
76586;BME280;65251;51.022;13.736;2023-07-08T01:43:02;99780.84;;;17.70;51.53
76586;BME280;65251;51.022;13.736;2023-07-08T01:43:34;99789.41;;;17.67;52.58
76586;BME280;65251;51.022;13.736;2023-07-08T01:44:05;99793.97;;;17.67;51.17
76586;BME280;65251;51.022;13.736;2023-07-08T01:44:36;99785.31;;;17.65;52.64
76586;BME280;65251;51.022;13.736;2023-07-08T01:45:11;99787.19;;;17.64;52.60
76586;BME280;65251;51.022;13.736;2023-07-08T01:45:42;99779.31;;;17.63;52.26
76586;BME280;65251;51.022;13.736;2023-07-08T01:46:17;99784.94;;;17.61;52.84
76586;BME280;65251;51.022;13.736;2023-07-08T01:46:51;99788.69;;;17.60;51.79
76586;BME280;65251;51.022;13.736;2023-07-08T01:47:24;99787.84;;;17.60;52.72
76586;BME280;65251;51.022;13.736;2023-07-08T01:47:59;99790.81;;;17.58;52.03
76586;BME280;65251;51.022;13.736;2023-07-08T01:48:40;99785.44;;;17.58;52.59
76586;BME280;65251;51.022;13.736;2023-07-08T01:49:13;99785.66;;;17.56;51.54
76586;BME280;65251;51.022;13.736;2023-07-08T01:49:46;99785.91;;;17.55;51.92
76586;BME280;65251;51.022;13.736;2023-07-08T01:50:18;99791.88;;;17.57;51.65
76586;BME280;65251;51.022;13.736;2023-07-08T01:50:56;99776.28;;;17.47;52.91
76586;BME280;65251;51.022;13.736;2023-07-08T01:51:29;99779.44;;;17.56;52.73
76586;BME280;65251;51.022;13.736;2023-07-08T01:51:59;99792.09;;;17.55;52.79
76586;BME280;65251;51.022;13.736;2023-07-08T01:52:32;99787.78;;;17.54;51.95
76586;BME280;65251;51.022;13.736;2023-07-08T01:53:08;99786.13;;;17.53;53.06
76586;BME280;65251;51.022;13.736;2023-07-08T01:53:43;99786.94;;;17.54;52.27
76586;BME280;65251;51.022;13.736;2023-07-08T01:54:14;99783.91;;;17.50;53.07
76586;BME280;65251;51.022;13.736;2023-07-08T01:54:44;99785.31;;;17.53;52.66
76586;BME280;65251;51.022;13.736;2023-07-08T01:55:15;99795.28;;;17.52;52.77
76586;BME280;65251;51.022;13.736;2023-07-08T01:55:51;99790.13;;;17.51;53.67
76586;BME280;65251;51.022;13.736;2023-07-08T01:56:22;99782.03;;;17.51;53.34
76586;BME280;65251;51.022;13.736;2023-07-08T01:56:54;99789.53;;;17.49;52.42
76586;BME280;65251;51.022;13.736;2023-07-08T01:57:26;99787.66;;;17.49;53.21
76586;BME280;65251;51.022;13.736;2023-07-08T01:57:58;99785.19;;;17.48;53.62
76586;BME280;65251;51.022;13.736;2023-07-08T01:58:29;99784.38;;;17.47;51.95
76586;BME280;65251;51.022;13.736;2023-07-08T01:58:59;99787.31;;;17.46;52.56
76586;BME280;65251;51.022;13.736;2023-07-08T01:59:31;99785.66;;;17.45;53.11
76586;BME280;65251;51.022;13.736;2023-07-08T02:00:03;99782.97;;;17.45;53.57
76586;BME280;65251;51.022;13.736;2023-07-08T02:00:34;99785.66;;;17.45;53.77
76586;BME280;65251;51.022;13.736;2023-07-08T02:01:05;99785.66;;;17.45;53.60
76586;BME280;65251;51.022;13.736;2023-07-08T02:01:37;99761.09;;;17.30;52.57
76586;BME280;65251;51.022;13.736;2023-07-08T02:02:10;99789.75;;;17.47;53.42
76586;BME280;65251;51.022;13.736;2023-07-08T02:02:40;99780.88;;;17.47;54.00
76586;BME280;65251;51.022;13.736;2023-07-08T02:03:11;99780.03;;;17.46;52.88
76586;BME280;65251;51.022;13.736;2023-07-08T02:03:42;99782.50;;;17.48;53.10
76586;BME280;65251;51.022;13.736;2023-07-08T02:04:16;99787.31;;;17.46;54.11
76586;BME280;65251;51.022;13.736;2023-07-08T02:04:47;99778.16;;;17.47;53.57
76586;BME280;65251;51.022;13.736;2023-07-08T02:05:18;99784.38;;;17.47;54.15
76586;BME280;65251;51.022;13.736;2023-07-08T02:05:49;99786.25;;;17.47;53.29
76586;BME280;65251;51.022;13.736;2023-07-08T02:06:20;99784.38;;;17.47;52.45
76586;BME280;65251;51.022;13.736;2023-07-08T02:06:52;99774.66;;;17.46;53.11
76586;BME280;65251;51.022;13.736;2023-07-08T02:07:23;99780.88;;;17.47;53.92
76586;BME280;65251;51.022;13.736;2023-07-08T02:07:55;99780.03;;;17.46;52.55
76586;BME280;65251;51.022;13.736;2023-07-08T02:08:27;99783.31;;;17.48;52.70
76586;BME280;65251;51.022;13.736;2023-07-08T02:08:58;99783.09;;;17.50;54.26
76586;BME280;65251;51.022;13.736;2023-07-08T02:09:29;99779.56;;;17.49;54.13
76586;BME280;65251;51.022;13.736;2023-07-08T02:10:01;99777.69;;;17.50;53.55
76586;BME280;65251;51.022;13.736;2023-07-08T02:10:31;99774.78;;;17.51;54.14
76586;BME280;65251;51.022;13.736;2023-07-08T02:11:02;99772.53;;;17.48;53.86
76586;BME280;65251;51.022;13.736;2023-07-08T02:11:33;99775.25;;;17.48;52.79
76586;BME280;65251;51.022;13.736;2023-07-08T02:12:04;99775.25;;;17.48;54.22
76586;BME280;65251;51.022;13.736;2023-07-08T02:12:36;99775.25;;;17.48;54.31
76586;BME280;65251;51.022;13.736;2023-07-08T02:13:07;99774.66;;;17.46;54.05
76586;BME280;65251;51.022;13.736;2023-07-08T02:13:38;99780.41;;;17.50;53.97
76586;BME280;65251;51.022;13.736;2023-07-08T02:14:09;99779.00;;;17.47;52.99
76586;BME280;65251;51.022;13.736;2023-07-08T02:14:41;99781.44;;;17.49;53.94
76586;BME280;65251;51.022;13.736;2023-07-08T02:15:11;99777.94;;;17.48;53.76
76586;BME280;65251;51.022;13.736;2023-07-08T02:15:42;99787.88;;;17.48;53.49
76586;BME280;65251;51.022;13.736;2023-07-08T02:16:13;99786.25;;;17.47;53.22
76586;BME280;65251;51.022;13.736;2023-07-08T02:16:44;99787.88;;;17.48;53.16
76586;BME280;65251;51.022;13.736;2023-07-08T02:17:15;99780.63;;;17.48;53.77
76586;BME280;65251;51.022;13.736;2023-07-08T02:17:47;99779.81;;;17.48;53.75
76586;BME280;65251;51.022;13.736;2023-07-08T02:18:19;99787.88;;;17.48;53.93
76586;BME280;65251;51.022;13.736;2023-07-08T02:18:50;99775.47;;;17.47;52.35
76586;BME280;65251;51.022;13.736;2023-07-08T02:19:20;99779.47;;;17.44;53.32
76586;BME280;65251;51.022;13.736;2023-07-08T02:19:52;99786.47;;;17.45;52.51
76586;BME280;65251;51.022;13.736;2023-07-08T02:20:24;99777.59;;;17.45;52.76
76586;BME280;65251;51.022;13.736;2023-07-08T02:20:55;99782.16;;;17.44;52.01
76586;BME280;65251;51.022;13.736;2023-07-08T02:21:26;99778.06;;;17.42;53.23
76586;BME280;65251;51.022;13.736;2023-07-08T02:21:56;99778.63;;;17.44;53.84
76586;BME280;65251;51.022;13.736;2023-07-08T02:22:28;99783.22;;;17.43;51.98
76586;BME280;65251;51.022;13.736;2023-07-08T02:23:00;99778.88;;;17.42;53.26
76586;BME280;65251;51.022;13.736;2023-07-08T02:23:31;99775.13;;;17.43;53.95
76586;BME280;65251;51.022;13.736;2023-07-08T02:24:03;99775.13;;;17.43;53.19
76586;BME280;65251;51.022;13.736;2023-07-08T02:24:34;99774.53;;;17.41;52.30
76586;BME280;65251;51.022;13.736;2023-07-08T02:25:05;99775.03;;;17.38;53.21
76586;BME280;65251;51.022;13.736;2023-07-08T02:25:36;99763.31;;;17.33;53.46
76586;BME280;65251;51.022;13.736;2023-07-08T02:26:08;99777.72;;;17.38;53.21
76586;BME280;65251;51.022;13.736;2023-07-08T02:26:39;99776.91;;;17.38;53.33
76586;BME280;65251;51.022;13.736;2023-07-08T02:27:09;99770.13;;;17.35;52.68
76586;BME280;65251;51.022;13.736;2023-07-08T02:27:40;99774.69;;;17.35;53.08
76586;BME280;65251;51.022;13.736;2023-07-08T02:28:12;99768.47;;;17.34;53.50
76586;BME280;65251;51.022;13.736;2023-07-08T02:28:42;99774.09;;;17.33;53.74
76586;BME280;65251;51.022;13.736;2023-07-08T02:29:13;99768.47;;;17.34;53.99
76586;BME280;65251;51.022;13.736;2023-07-08T02:29:44;99771.63;;;17.31;53.17
76586;BME280;65251;51.022;13.736;2023-07-08T02:30:16;99770.81;;;17.31;54.00
76586;BME280;65251;51.022;13.736;2023-07-08T02:30:47;99772.47;;;17.32;53.04
76586;BME280;65251;51.022;13.736;2023-07-08T02:31:17;99766.50;;;17.30;54.45
76586;BME280;65251;51.022;13.736;2023-07-08T02:31:49;99761.34;;;17.28;53.85
76586;BME280;65251;51.022;13.736;2023-07-08T02:32:20;99758.63;;;17.28;54.36
76586;BME280;65251;51.022;13.736;2023-07-08T02:32:51;99766.97;;;17.27;54.66
76586;BME280;65251;51.022;13.736;2023-07-08T02:33:27;99768.59;;;17.28;53.45
76586;BME280;65251;51.022;13.736;2023-07-08T02:34:03;99758.88;;;17.27;55.07
76586;BME280;65251;51.022;13.736;2023-07-08T02:34:34;99766.13;;;17.26;53.43
76586;BME280;65251;51.022;13.736;2023-07-08T02:35:05;99758.88;;;17.27;54.14
76586;BME280;65251;51.022;13.736;2023-07-08T02:35:37;99761.81;;;17.25;54.41
76586;BME280;65251;51.022;13.736;2023-07-08T02:36:08;99760.97;;;17.25;54.24
76586;BME280;65251;51.022;13.736;2023-07-08T02:36:39;99753.03;;;17.18;54.04
76586;BME280;65251;51.022;13.736;2023-07-08T02:37:09;99761.69;;;17.20;54.94
76586;BME280;65251;51.022;13.736;2023-07-08T02:37:41;99764.13;;;17.21;55.12
76586;BME280;65251;51.022;13.736;2023-07-08T02:38:13;99761.69;;;17.20;53.89
76586;BME280;65251;51.022;13.736;2023-07-08T02:38:44;99759.00;;;17.20;54.74
76586;BME280;65251;51.022;13.736;2023-07-08T02:39:15;99760.03;;;17.19;53.90
76586;BME280;65251;51.022;13.736;2023-07-08T02:39:46;99760.03;;;17.19;53.84
76586;BME280;65251;51.022;13.736;2023-07-08T02:40:17;99768.13;;;17.19;55.54
76586;BME280;65251;51.022;13.736;2023-07-08T02:40:49;99762.19;;;17.17;55.00
76586;BME280;65251;51.022;13.736;2023-07-08T02:41:19;99769.91;;;17.13;54.81
76586;BME280;65251;51.022;13.736;2023-07-08T02:41:50;99764.06;;;17.16;55.13
76586;BME280;65251;51.022;13.736;2023-07-08T02:42:22;99769.44;;;17.16;54.81
76586;BME280;65251;51.022;13.736;2023-07-08T02:42:52;99764.28;;;17.15;54.63
76586;BME280;65251;51.022;13.736;2023-07-08T02:43:23;99770.50;;;17.15;54.08
76586;BME280;65251;51.022;13.736;2023-07-08T02:43:54;99766.97;;;17.15;54.92
76586;BME280;65251;51.022;13.736;2023-07-08T02:44:25;99766.16;;;17.14;54.04
76586;BME280;65251;51.022;13.736;2023-07-08T02:44:56;99762.66;;;17.14;54.91
76586;BME280;65251;51.022;13.736;2023-07-08T02:45:27;99770.50;;;17.15;55.30
76586;BME280;65251;51.022;13.736;2023-07-08T02:45:59;99766.50;;;17.18;54.42
76586;BME280;65251;51.022;13.736;2023-07-08T02:46:30;99766.97;;;17.15;54.88
76586;BME280;65251;51.022;13.736;2023-07-08T02:47:01;99761.81;;;17.13;55.93
76586;BME280;65251;51.022;13.736;2023-07-08T02:47:31;99772.38;;;17.15;55.32
76586;BME280;65251;51.022;13.736;2023-07-08T02:48:03;99775.88;;;17.15;54.76
76586;BME280;65251;51.022;13.736;2023-07-08T02:48:34;99767.22;;;17.13;54.72
76586;BME280;65251;51.022;13.736;2023-07-08T02:49:05;99767.44;;;17.12;55.76
76586;BME280;65251;51.022;13.736;2023-07-08T02:49:36;99766.84;;;17.10;56.27
76586;BME280;65251;51.022;13.736;2023-07-08T02:50:09;99774.13;;;17.09;56.07
76586;BME280;65251;51.022;13.736;2023-07-08T02:50:39;99764.97;;;17.10;55.81
76586;BME280;65251;51.022;13.736;2023-07-08T02:51:10;99766.28;;;17.08;56.00
76586;BME280;65251;51.022;13.736;2023-07-08T02:51:41;99760.28;;;17.06;55.86
76586;BME280;65251;51.022;13.736;2023-07-08T02:52:13;99765.69;;;17.06;55.86